sensor_id;sensor_type;location;lat;lon;timestamp;P1;durP1;ratioP1;P2;durP2;ratioP2
42832;SDS011;64089;51.478;5.692;2022-11-20T00:01:49;15.63;;;7.45;;
42832;SDS011;64089;51.478;5.692;2022-11-20T00:04:15;13.80;;;7.10;;
42832;SDS011;64089;51.478;5.692;2022-11-20T00:06:40;15.55;;;7.85;;
42832;SDS011;64089;51.478;5.692;2022-11-20T00:09:06;18.58;;;7.18;;
42832;SDS011;64089;51.478;5.692;2022-11-20T00:11:34;14.95;;;8.15;;
42832;SDS011;64089;51.478;5.692;2022-11-20T00:14:01;17.90;;;8.70;;
42832;SDS011;64089;51.478;5.692;2022-11-20T00:16:27;18.73;;;8.60;;
42832;SDS011;64089;51.478;5.692;2022-11-20T00:18:55;20.73;;;8.07;;
42832;SDS011;64089;51.478;5.692;2022-11-20T00:21:22;17.52;;;8.70;;
42832;SDS011;64089;51.478;5.692;2022-11-20T00:23:49;22.92;;;8.10;;
42832;SDS011;64089;51.478;5.692;2022-11-20T00:26:16;17.45;;;8.48;;
42832;SDS011;64089;51.478;5.692;2022-11-20T00:28:43;20.35;;;8.25;;
42832;SDS011;64089;51.478;5.692;2022-11-20T00:31:14;19.48;;;8.73;;
42832;SDS011;64089;51.478;5.692;2022-11-20T00:33:40;16.88;;;7.22;;
42832;SDS011;64089;51.478;5.692;2022-11-20T00:36:08;15.65;;;8.07;;
42832;SDS011;64089;51.478;5.692;2022-11-20T00:38:43;17.88;;;7.65;;
42832;SDS011;64089;51.478;5.692;2022-11-20T00:41:10;15.07;;;7.68;;
42832;SDS011;64089;51.478;5.692;2022-11-20T00:43:38;17.90;;;8.02;;
42832;SDS011;64089;51.478;5.692;2022-11-20T00:46:07;13.63;;;7.50;;
42832;SDS011;64089;51.478;5.692;2022-11-20T00:48:35;15.55;;;7.85;;
42832;SDS011;64089;51.478;5.692;2022-11-20T00:51:01;17.33;;;8.38;;
42832;SDS011;64089;51.478;5.692;2022-11-20T00:53:26;16.65;;;9.02;;
42832;SDS011;64089;51.478;5.692;2022-11-20T00:55:53;15.50;;;7.65;;
42832;SDS011;64089;51.478;5.692;2022-11-20T00:58:28;17.35;;;7.30;;
42832;SDS011;64089;51.478;5.692;2022-11-20T01:01:02;13.90;;;7.57;;
42832;SDS011;64089;51.478;5.692;2022-11-20T01:03:30;26.55;;;8.27;;
42832;SDS011;64089;51.478;5.692;2022-11-20T01:06:04;21.33;;;8.10;;
42832;SDS011;64089;51.478;5.692;2022-11-20T01:08:33;17.63;;;8.75;;
42832;SDS011;64089;51.478;5.692;2022-11-20T01:11:01;16.17;;;8.38;;
42832;SDS011;64089;51.478;5.692;2022-11-20T01:13:30;13.77;;;7.50;;
42832;SDS011;64089;51.478;5.692;2022-11-20T01:18:44;17.55;;;7.38;;
42832;SDS011;64089;51.478;5.692;2022-11-20T01:21:13;15.57;;;8.20;;
42832;SDS011;64089;51.478;5.692;2022-11-20T01:23:44;16.73;;;7.85;;
42832;SDS011;64089;51.478;5.692;2022-11-20T01:26:18;17.52;;;8.40;;
42832;SDS011;64089;51.478;5.692;2022-11-20T01:28:45;17.63;;;8.25;;
42832;SDS011;64089;51.478;5.692;2022-11-20T01:31:12;16.73;;;7.65;;
42832;SDS011;64089;51.478;5.692;2022-11-20T01:33:43;19.48;;;8.02;;
42832;SDS011;64089;51.478;5.692;2022-11-20T01:36:10;18.30;;;8.98;;
42832;SDS011;64089;51.478;5.692;2022-11-20T01:38:36;15.57;;;7.47;;
42832;SDS011;64089;51.478;5.692;2022-11-20T01:41:02;14.65;;;7.38;;
42832;SDS011;64089;51.478;5.692;2022-11-20T01:43:28;18.48;;;8.38;;
42832;SDS011;64089;51.478;5.692;2022-11-20T01:48:33;16.17;;;7.80;;
42832;SDS011;64089;51.478;5.692;2022-11-20T01:51:05;18.67;;;8.55;;
42832;SDS011;64089;51.478;5.692;2022-11-20T01:53:37;16.35;;;8.40;;
42832;SDS011;64089;51.478;5.692;2022-11-20T01:56:05;21.98;;;8.75;;
42832;SDS011;64089;51.478;5.692;2022-11-20T01:58:33;20.38;;;8.75;;
42832;SDS011;64089;51.478;5.692;2022-11-20T02:01:03;16.38;;;8.68;;
42832;SDS011;64089;51.478;5.692;2022-11-20T02:03:29;22.70;;;7.70;;
42832;SDS011;64089;51.478;5.692;2022-11-20T02:05:57;18.25;;;8.48;;
42832;SDS011;64089;51.478;5.692;2022-11-20T02:08:30;16.63;;;7.97;;
42832;SDS011;64089;51.478;5.692;2022-11-20T02:10:57;18.20;;;8.77;;
42832;SDS011;64089;51.478;5.692;2022-11-20T02:13:23;17.60;;;8.52;;
42832;SDS011;64089;51.478;5.692;2022-11-20T02:16:26;17.55;;;8.43;;
42832;SDS011;64089;51.478;5.692;2022-11-20T02:18:57;18.85;;;9.18;;
42832;SDS011;64089;51.478;5.692;2022-11-20T02:21:46;17.52;;;8.00;;
42832;SDS011;64089;51.478;5.692;2022-11-20T02:24:21;20.95;;;8.55;;
42832;SDS011;64089;51.478;5.692;2022-11-20T02:26:54;18.50;;;8.60;;
42832;SDS011;64089;51.478;5.692;2022-11-20T02:29:40;21.88;;;9.00;;
42832;SDS011;64089;51.478;5.692;2022-11-20T02:32:36;19.20;;;8.77;;
42832;SDS011;64089;51.478;5.692;2022-11-20T02:35:35;18.30;;;8.60;;
42832;SDS011;64089;51.478;5.692;2022-11-20T02:37:56;23.15;;;9.75;;
42832;SDS011;64089;51.478;5.692;2022-11-20T02:40:24;20.25;;;8.23;;
42832;SDS011;64089;51.478;5.692;2022-11-20T02:42:56;17.98;;;9.32;;
42832;SDS011;64089;51.478;5.692;2022-11-20T02:45:22;19.08;;;8.73;;
42832;SDS011;64089;51.478;5.692;2022-11-20T02:47:49;18.48;;;8.30;;
42832;SDS011;64089;51.478;5.692;2022-11-20T02:50:14;17.08;;;7.68;;
42832;SDS011;64089;51.478;5.692;2022-11-20T02:52:40;19.90;;;8.65;;
42832;SDS011;64089;51.478;5.692;2022-11-20T02:55:06;18.13;;;8.82;;
42832;SDS011;64089;51.478;5.692;2022-11-20T02:57:32;24.88;;;9.75;;
42832;SDS011;64089;51.478;5.692;2022-11-20T02:59:57;16.83;;;8.30;;
42832;SDS011;64089;51.478;5.692;2022-11-20T03:02:23;23.30;;;8.88;;
42832;SDS011;64089;51.478;5.692;2022-11-20T03:04:48;22.77;;;8.60;;
42832;SDS011;64089;51.478;5.692;2022-11-20T03:07:15;18.63;;;9.38;;
42832;SDS011;64089;51.478;5.692;2022-11-20T03:09:40;17.63;;;8.15;;
42832;SDS011;64089;51.478;5.692;2022-11-20T03:12:06;18.95;;;8.90;;
42832;SDS011;64089;51.478;5.692;2022-11-20T03:14:32;22.58;;;8.02;;
42832;SDS011;64089;51.478;5.692;2022-11-20T03:16:57;16.98;;;9.27;;
42832;SDS011;64089;51.478;5.692;2022-11-20T03:19:23;18.20;;;8.30;;
42832;SDS011;64089;51.478;5.692;2022-11-20T03:21:49;18.02;;;9.23;;
42832;SDS011;64089;51.478;5.692;2022-11-20T03:24:15;18.45;;;8.93;;
42832;SDS011;64089;51.478;5.692;2022-11-20T03:26:40;19.75;;;9.15;;
42832;SDS011;64089;51.478;5.692;2022-11-20T03:29:06;24.10;;;8.93;;
42832;SDS011;64089;51.478;5.692;2022-11-20T03:31:33;22.92;;;9.30;;
42832;SDS011;64089;51.478;5.692;2022-11-20T03:34:01;16.95;;;8.63;;
42832;SDS011;64089;51.478;5.692;2022-11-20T03:36:27;18.15;;;9.52;;
42832;SDS011;64089;51.478;5.692;2022-11-20T03:38:54;21.65;;;9.45;;
42832;SDS011;64089;51.478;5.692;2022-11-20T03:41:21;21.92;;;9.35;;
42832;SDS011;64089;51.478;5.692;2022-11-20T03:43:53;26.83;;;9.95;;
42832;SDS011;64089;51.478;5.692;2022-11-20T03:46:24;21.75;;;8.15;;
42832;SDS011;64089;51.478;5.692;2022-11-20T03:48:50;19.42;;;8.35;;
42832;SDS011;64089;51.478;5.692;2022-11-20T03:51:17;24.92;;;9.45;;
42832;SDS011;64089;51.478;5.692;2022-11-20T03:53:43;21.02;;;9.80;;
42832;SDS011;64089;51.478;5.692;2022-11-20T03:56:10;19.30;;;9.45;;
42832;SDS011;64089;51.478;5.692;2022-11-20T03:58:38;19.38;;;9.20;;
42832;SDS011;64089;51.478;5.692;2022-11-20T04:01:09;18.95;;;8.30;;
42832;SDS011;64089;51.478;5.692;2022-11-20T04:03:39;20.73;;;9.43;;
42832;SDS011;64089;51.478;5.692;2022-11-20T04:06:07;20.85;;;9.45;;
42832;SDS011;64089;51.478;5.692;2022-11-20T04:08:35;17.20;;;8.57;;
42832;SDS011;64089;51.478;5.692;2022-11-20T04:11:08;22.33;;;10.40;;
42832;SDS011;64089;51.478;5.692;2022-11-20T04:13:38;20.98;;;9.85;;
42832;SDS011;64089;51.478;5.692;2022-11-20T04:16:04;25.42;;;11.57;;
42832;SDS011;64089;51.478;5.692;2022-11-20T04:18:31;31.77;;;12.88;;
42832;SDS011;64089;51.478;5.692;2022-11-20T04:20:57;22.73;;;9.38;;
42832;SDS011;64089;51.478;5.692;2022-11-20T04:23:23;20.65;;;10.77;;
42832;SDS011;64089;51.478;5.692;2022-11-20T04:25:49;17.98;;;8.90;;
42832;SDS011;64089;51.478;5.692;2022-11-20T04:28:15;17.70;;;8.98;;
42832;SDS011;64089;51.478;5.692;2022-11-20T04:30:40;18.15;;;8.77;;
42832;SDS011;64089;51.478;5.692;2022-11-20T04:33:06;20.10;;;8.85;;
42832;SDS011;64089;51.478;5.692;2022-11-20T04:35:35;22.08;;;8.88;;
42832;SDS011;64089;51.478;5.692;2022-11-20T04:38:01;16.95;;;8.60;;
42832;SDS011;64089;51.478;5.692;2022-11-20T04:40:27;21.70;;;9.13;;
42832;SDS011;64089;51.478;5.692;2022-11-20T04:42:54;17.80;;;8.65;;
42832;SDS011;64089;51.478;5.692;2022-11-20T04:45:20;16.23;;;9.68;;
42832;SDS011;64089;51.478;5.692;2022-11-20T04:47:46;17.42;;;8.70;;
42832;SDS011;64089;51.478;5.692;2022-11-20T04:50:12;20.33;;;9.48;;
42832;SDS011;64089;51.478;5.692;2022-11-20T04:52:37;17.85;;;8.82;;
42832;SDS011;64089;51.478;5.692;2022-11-20T04:55:03;21.10;;;9.07;;
42832;SDS011;64089;51.478;5.692;2022-11-20T04:57:29;19.58;;;9.43;;
42832;SDS011;64089;51.478;5.692;2022-11-20T04:59:55;20.52;;;8.85;;
42832;SDS011;64089;51.478;5.692;2022-11-20T05:02:20;21.73;;;9.82;;
42832;SDS011;64089;51.478;5.692;2022-11-20T05:04:46;18.48;;;9.18;;
42832;SDS011;64089;51.478;5.692;2022-11-20T05:07:12;20.92;;;9.27;;
42832;SDS011;64089;51.478;5.692;2022-11-20T05:09:37;17.10;;;8.35;;
42832;SDS011;64089;51.478;5.692;2022-11-20T05:12:03;17.73;;;8.45;;
42832;SDS011;64089;51.478;5.692;2022-11-20T05:14:29;19.45;;;8.80;;
42832;SDS011;64089;51.478;5.692;2022-11-20T05:16:54;17.20;;;9.10;;
42832;SDS011;64089;51.478;5.692;2022-11-20T05:19:20;19.88;;;9.43;;
42832;SDS011;64089;51.478;5.692;2022-11-20T05:21:46;18.77;;;9.02;;
42832;SDS011;64089;51.478;5.692;2022-11-20T05:24:12;18.45;;;8.50;;
42832;SDS011;64089;51.478;5.692;2022-11-20T05:26:37;21.55;;;9.55;;
42832;SDS011;64089;51.478;5.692;2022-11-20T05:29:03;29.15;;;10.38;;
42832;SDS011;64089;51.478;5.692;2022-11-20T05:31:28;19.48;;;9.07;;
42832;SDS011;64089;51.478;5.692;2022-11-20T05:33:55;15.90;;;8.40;;
42832;SDS011;64089;51.478;5.692;2022-11-20T05:36:21;19.65;;;8.82;;
42832;SDS011;64089;51.478;5.692;2022-11-20T05:38:47;16.83;;;8.75;;
42832;SDS011;64089;51.478;5.692;2022-11-20T05:41:13;17.40;;;8.48;;
42832;SDS011;64089;51.478;5.692;2022-11-20T05:43:41;17.52;;;9.15;;
42832;SDS011;64089;51.478;5.692;2022-11-20T05:46:08;19.17;;;9.27;;
42832;SDS011;64089;51.478;5.692;2022-11-20T05:48:36;19.55;;;9.05;;
42832;SDS011;64089;51.478;5.692;2022-11-20T05:51:03;18.52;;;9.70;;
42832;SDS011;64089;51.478;5.692;2022-11-20T05:53:30;21.02;;;10.65;;
42832;SDS011;64089;51.478;5.692;2022-11-20T05:56:01;20.13;;;8.88;;
42832;SDS011;64089;51.478;5.692;2022-11-20T05:58:28;21.38;;;10.13;;
42832;SDS011;64089;51.478;5.692;2022-11-20T06:01:02;23.70;;;9.15;;
42832;SDS011;64089;51.478;5.692;2022-11-20T06:03:38;19.48;;;8.88;;
42832;SDS011;64089;51.478;5.692;2022-11-20T06:06:05;20.25;;;9.98;;
42832;SDS011;64089;51.478;5.692;2022-11-20T06:08:31;24.00;;;10.32;;
42832;SDS011;64089;51.478;5.692;2022-11-20T06:10:57;17.50;;;9.27;;
42832;SDS011;64089;51.478;5.692;2022-11-20T06:13:23;18.27;;;9.00;;
42832;SDS011;64089;51.478;5.692;2022-11-20T06:15:49;21.30;;;9.20;;
42832;SDS011;64089;51.478;5.692;2022-11-20T06:18:16;24.27;;;10.70;;
42832;SDS011;64089;51.478;5.692;2022-11-20T06:20:42;21.63;;;10.40;;
42832;SDS011;64089;51.478;5.692;2022-11-20T06:23:08;26.40;;;10.57;;
42832;SDS011;64089;51.478;5.692;2022-11-20T06:25:36;18.55;;;9.48;;
42832;SDS011;64089;51.478;5.692;2022-11-20T06:28:03;18.70;;;9.05;;
42832;SDS011;64089;51.478;5.692;2022-11-20T06:30:28;21.50;;;9.90;;
42832;SDS011;64089;51.478;5.692;2022-11-20T06:32:54;22.23;;;10.95;;
42832;SDS011;64089;51.478;5.692;2022-11-20T06:35:20;22.70;;;9.70;;
42832;SDS011;64089;51.478;5.692;2022-11-20T06:37:45;20.02;;;9.88;;
42832;SDS011;64089;51.478;5.692;2022-11-20T06:40:11;20.23;;;9.48;;
42832;SDS011;64089;51.478;5.692;2022-11-20T06:42:37;19.30;;;9.93;;
42832;SDS011;64089;51.478;5.692;2022-11-20T06:45:02;24.00;;;9.30;;
42832;SDS011;64089;51.478;5.692;2022-11-20T06:47:28;21.95;;;9.60;;
42832;SDS011;64089;51.478;5.692;2022-11-20T06:49:54;23.63;;;10.07;;
42832;SDS011;64089;51.478;5.692;2022-11-20T06:52:19;21.55;;;10.20;;
42832;SDS011;64089;51.478;5.692;2022-11-20T06:54:45;19.50;;;9.15;;
42832;SDS011;64089;51.478;5.692;2022-11-20T06:57:10;19.40;;;9.05;;
42832;SDS011;64089;51.478;5.692;2022-11-20T06:59:36;16.45;;;9.27;;
42832;SDS011;64089;51.478;5.692;2022-11-20T07:02:02;20.23;;;9.75;;
42832;SDS011;64089;51.478;5.692;2022-11-20T07:04:27;18.90;;;9.77;;
42832;SDS011;64089;51.478;5.692;2022-11-20T07:06:53;19.92;;;9.27;;
42832;SDS011;64089;51.478;5.692;2022-11-20T07:09:18;19.27;;;9.15;;
42832;SDS011;64089;51.478;5.692;2022-11-20T07:11:44;25.10;;;9.98;;
42832;SDS011;64089;51.478;5.692;2022-11-20T07:14:09;21.23;;;10.57;;
42832;SDS011;64089;51.478;5.692;2022-11-20T07:16:35;22.90;;;10.32;;
42832;SDS011;64089;51.478;5.692;2022-11-20T07:19:00;19.05;;;10.18;;
42832;SDS011;64089;51.478;5.692;2022-11-20T07:21:26;21.48;;;10.60;;
42832;SDS011;64089;51.478;5.692;2022-11-20T07:23:52;20.25;;;9.93;;
42832;SDS011;64089;51.478;5.692;2022-11-20T07:26:17;25.73;;;9.60;;
42832;SDS011;64089;51.478;5.692;2022-11-20T07:28:44;21.63;;;10.45;;
42832;SDS011;64089;51.478;5.692;2022-11-20T07:31:10;22.88;;;8.95;;
42832;SDS011;64089;51.478;5.692;2022-11-20T07:33:37;19.77;;;10.68;;
42832;SDS011;64089;51.478;5.692;2022-11-20T07:36:03;20.02;;;10.80;;
42832;SDS011;64089;51.478;5.692;2022-11-20T07:38:29;20.80;;;10.98;;
42832;SDS011;64089;51.478;5.692;2022-11-20T07:40:58;21.25;;;11.38;;
42832;SDS011;64089;51.478;5.692;2022-11-20T07:43:26;26.75;;;9.65;;
42832;SDS011;64089;51.478;5.692;2022-11-20T07:45:54;23.17;;;11.52;;
42832;SDS011;64089;51.478;5.692;2022-11-20T07:48:21;42.28;;;10.80;;
42832;SDS011;64089;51.478;5.692;2022-11-20T07:50:47;24.13;;;10.30;;
42832;SDS011;64089;51.478;5.692;2022-11-20T07:53:12;23.17;;;10.13;;
42832;SDS011;64089;51.478;5.692;2022-11-20T07:55:38;19.85;;;9.38;;
42832;SDS011;64089;51.478;5.692;2022-11-20T07:58:05;30.83;;;11.60;;
42832;SDS011;64089;51.478;5.692;2022-11-20T08:00:31;21.92;;;10.07;;
42832;SDS011;64089;51.478;5.692;2022-11-20T08:02:56;25.45;;;10.45;;
42832;SDS011;64089;51.478;5.692;2022-11-20T08:05:22;18.77;;;9.18;;
42832;SDS011;64089;51.478;5.692;2022-11-20T08:07:47;21.30;;;9.48;;
42832;SDS011;64089;51.478;5.692;2022-11-20T08:10:14;19.80;;;9.75;;
42832;SDS011;64089;51.478;5.692;2022-11-20T08:12:48;21.33;;;9.60;;
42832;SDS011;64089;51.478;5.692;2022-11-20T08:15:34;16.95;;;9.20;;
42832;SDS011;64089;51.478;5.692;2022-11-20T08:18:03;17.63;;;9.30;;
42832;SDS011;64089;51.478;5.692;2022-11-20T08:20:31;16.60;;;9.05;;
42832;SDS011;64089;51.478;5.692;2022-11-20T08:22:57;21.45;;;10.15;;
42832;SDS011;64089;51.478;5.692;2022-11-20T08:25:27;18.88;;;9.40;;
42832;SDS011;64089;51.478;5.692;2022-11-20T08:27:53;20.10;;;9.68;;
42832;SDS011;64089;51.478;5.692;2022-11-20T08:30:21;22.20;;;10.27;;
42832;SDS011;64089;51.478;5.692;2022-11-20T08:32:47;21.55;;;9.45;;
42832;SDS011;64089;51.478;5.692;2022-11-20T08:35:12;22.85;;;9.05;;
42832;SDS011;64089;51.478;5.692;2022-11-20T08:37:38;22.73;;;9.90;;
42832;SDS011;64089;51.478;5.692;2022-11-20T08:40:06;23.73;;;11.00;;
42832;SDS011;64089;51.478;5.692;2022-11-20T08:42:36;22.48;;;10.35;;
42832;SDS011;64089;51.478;5.692;2022-11-20T08:45:01;24.38;;;10.75;;
42832;SDS011;64089;51.478;5.692;2022-11-20T08:47:27;27.25;;;11.38;;
42832;SDS011;64089;51.478;5.692;2022-11-20T08:49:53;26.90;;;11.10;;
42832;SDS011;64089;51.478;5.692;2022-11-20T08:52:19;27.65;;;12.95;;
42832;SDS011;64089;51.478;5.692;2022-11-20T08:54:44;27.73;;;12.70;;
42832;SDS011;64089;51.478;5.692;2022-11-20T08:57:10;27.45;;;12.10;;
42832;SDS011;64089;51.478;5.692;2022-11-20T08:59:35;25.50;;;12.38;;
42832;SDS011;64089;51.478;5.692;2022-11-20T09:02:01;27.13;;;12.82;;
42832;SDS011;64089;51.478;5.692;2022-11-20T09:04:26;26.77;;;12.60;;
42832;SDS011;64089;51.478;5.692;2022-11-20T09:06:52;24.38;;;10.95;;
42832;SDS011;64089;51.478;5.692;2022-11-20T09:09:17;23.25;;;11.93;;
42832;SDS011;64089;51.478;5.692;2022-11-20T09:11:43;24.83;;;11.48;;
42832;SDS011;64089;51.478;5.692;2022-11-20T09:14:09;26.13;;;11.52;;
42832;SDS011;64089;51.478;5.692;2022-11-20T09:16:35;24.17;;;10.43;;
42832;SDS011;64089;51.478;5.692;2022-11-20T09:19:00;32.50;;;11.68;;
42832;SDS011;64089;51.478;5.692;2022-11-20T09:21:26;23.25;;;10.50;;
42832;SDS011;64089;51.478;5.692;2022-11-20T09:23:52;21.55;;;9.82;;
42832;SDS011;64089;51.478;5.692;2022-11-20T09:26:17;27.00;;;12.00;;
42832;SDS011;64089;51.478;5.692;2022-11-20T09:28:44;78.80;;;32.70;;
42832;SDS011;64089;51.478;5.692;2022-11-20T09:31:22;158.32;;;59.38;;
42832;SDS011;64089;51.478;5.692;2022-11-20T09:33:49;132.75;;;51.78;;
42832;SDS011;64089;51.478;5.692;2022-11-20T09:36:15;34.55;;;17.13;;
42832;SDS011;64089;51.478;5.692;2022-11-20T09:38:41;27.20;;;11.95;;
42832;SDS011;64089;51.478;5.692;2022-11-20T09:41:10;26.40;;;12.23;;
42832;SDS011;64089;51.478;5.692;2022-11-20T09:48:53;27.33;;;11.80;;
42832;SDS011;64089;51.478;5.692;2022-11-20T09:56:47;33.47;;;13.45;;
42832;SDS011;64089;51.478;5.692;2022-11-20T09:59:40;39.50;;;14.23;;
42832;SDS011;64089;51.478;5.692;2022-11-20T10:07:43;38.60;;;13.77;;
42832;SDS011;64089;51.478;5.692;2022-11-20T10:11:04;38.53;;;13.73;;
42832;SDS011;64089;51.478;5.692;2022-11-20T10:21:34;40.03;;;15.52;;
42832;SDS011;64089;51.478;5.692;2022-11-20T10:27:15;50.40;;;17.35;;
42832;SDS011;64089;51.478;5.692;2022-11-20T10:30:15;44.45;;;15.35;;
42832;SDS011;64089;51.478;5.692;2022-11-20T10:32:46;45.00;;;16.83;;
42832;SDS011;64089;51.478;5.692;2022-11-20T10:40:44;40.35;;;15.90;;
42832;SDS011;64089;51.478;5.692;2022-11-20T10:43:34;49.50;;;16.90;;
42832;SDS011;64089;51.478;5.692;2022-11-20T10:46:00;33.15;;;15.23;;
42832;SDS011;64089;51.478;5.692;2022-11-20T10:48:30;40.83;;;15.65;;
42832;SDS011;64089;51.478;5.692;2022-11-20T10:53:56;37.90;;;17.73;;
42832;SDS011;64089;51.478;5.692;2022-11-20T10:56:37;42.15;;;17.08;;
42832;SDS011;64089;51.478;5.692;2022-11-20T11:01:41;51.22;;;18.23;;
42832;SDS011;64089;51.478;5.692;2022-11-20T11:04:18;43.60;;;16.77;;
42832;SDS011;64089;51.478;5.692;2022-11-20T11:07:29;40.17;;;16.30;;
42832;SDS011;64089;51.478;5.692;2022-11-20T11:10:05;47.63;;;18.00;;
42832;SDS011;64089;51.478;5.692;2022-11-20T11:12:46;48.92;;;16.08;;
42832;SDS011;64089;51.478;5.692;2022-11-20T11:18:04;46.35;;;17.33;;
42832;SDS011;64089;51.478;5.692;2022-11-20T11:20:33;76.10;;;27.60;;
42832;SDS011;64089;51.478;5.692;2022-11-20T11:22:59;114.00;;;43.97;;
42832;SDS011;64089;51.478;5.692;2022-11-20T11:25:32;228.15;;;81.88;;
42832;SDS011;64089;51.478;5.692;2022-11-20T11:28:03;51.70;;;20.08;;
42832;SDS011;64089;51.478;5.692;2022-11-20T11:30:40;50.22;;;17.67;;
42832;SDS011;64089;51.478;5.692;2022-11-20T11:33:11;46.22;;;17.77;;
42832;SDS011;64089;51.478;5.692;2022-11-20T11:35:47;45.38;;;14.48;;
42832;SDS011;64089;51.478;5.692;2022-11-20T11:38:16;52.20;;;17.63;;
42832;SDS011;64089;51.478;5.692;2022-11-20T11:40:44;43.78;;;17.02;;
42832;SDS011;64089;51.478;5.692;2022-11-20T11:43:22;45.10;;;15.70;;
42832;SDS011;64089;51.478;5.692;2022-11-20T11:48:59;41.33;;;15.73;;
42832;SDS011;64089;51.478;5.692;2022-11-20T11:51:32;47.15;;;16.15;;
42832;SDS011;64089;51.478;5.692;2022-11-20T11:54:05;42.58;;;16.60;;
42832;SDS011;64089;51.478;5.692;2022-11-20T11:56:41;56.22;;;17.58;;
42832;SDS011;64089;51.478;5.692;2022-11-20T11:59:09;55.08;;;16.80;;
42832;SDS011;64089;51.478;5.692;2022-11-20T12:01:43;41.38;;;16.23;;
42832;SDS011;64089;51.478;5.692;2022-11-20T12:07:00;45.15;;;17.52;;
42832;SDS011;64089;51.478;5.692;2022-11-20T12:09:34;57.30;;;20.85;;
42832;SDS011;64089;51.478;5.692;2022-11-20T12:14:40;61.42;;;21.40;;
42832;SDS011;64089;51.478;5.692;2022-11-20T12:17:12;45.92;;;18.50;;
42832;SDS011;64089;51.478;5.692;2022-11-20T12:19:39;44.45;;;17.25;;
42832;SDS011;64089;51.478;5.692;2022-11-20T12:24:52;44.03;;;16.27;;
42832;SDS011;64089;51.478;5.692;2022-11-20T12:30:18;39.97;;;16.75;;
42832;SDS011;64089;51.478;5.692;2022-11-20T12:35:42;51.50;;;17.10;;
42832;SDS011;64089;51.478;5.692;2022-11-20T12:44:52;46.45;;;14.95;;
42832;SDS011;64089;51.478;5.692;2022-11-20T12:53:27;43.53;;;16.48;;
42832;SDS011;64089;51.478;5.692;2022-11-20T12:58:52;49.75;;;16.52;;
42832;SDS011;64089;51.478;5.692;2022-11-20T13:01:49;40.83;;;15.63;;
42832;SDS011;64089;51.478;5.692;2022-11-20T13:04:26;41.00;;;16.55;;
42832;SDS011;64089;51.478;5.692;2022-11-20T13:06:55;42.50;;;15.95;;
42832;SDS011;64089;51.478;5.692;2022-11-20T13:09:22;47.70;;;16.50;;
42832;SDS011;64089;51.478;5.692;2022-11-20T13:12:01;38.20;;;16.77;;
42832;SDS011;64089;51.478;5.692;2022-11-20T13:14:40;47.30;;;16.35;;
42832;SDS011;64089;51.478;5.692;2022-11-20T13:17:28;47.08;;;17.67;;
42832;SDS011;64089;51.478;5.692;2022-11-20T13:19:58;38.85;;;15.30;;
42832;SDS011;64089;51.478;5.692;2022-11-20T13:22:25;47.70;;;16.67;;
42832;SDS011;64089;51.478;5.692;2022-11-20T13:24:51;50.47;;;18.33;;
42832;SDS011;64089;51.478;5.692;2022-11-20T13:27:18;46.08;;;16.35;;
42832;SDS011;64089;51.478;5.692;2022-11-20T13:30:02;41.85;;;16.98;;
42832;SDS011;64089;51.478;5.692;2022-11-20T13:32:50;41.72;;;16.83;;
42832;SDS011;64089;51.478;5.692;2022-11-20T13:35:23;45.03;;;15.98;;
42832;SDS011;64089;51.478;5.692;2022-11-20T13:38:02;51.00;;;17.75;;
42832;SDS011;64089;51.478;5.692;2022-11-20T13:40:35;33.45;;;15.38;;
42832;SDS011;64089;51.478;5.692;2022-11-20T13:46:05;48.53;;;16.85;;
42832;SDS011;64089;51.478;5.692;2022-11-20T13:48:43;42.60;;;16.00;;
42832;SDS011;64089;51.478;5.692;2022-11-20T14:02:27;38.33;;;15.02;;
42832;SDS011;64089;51.478;5.692;2022-11-20T14:04:56;47.67;;;16.33;;
42832;SDS011;64089;51.478;5.692;2022-11-20T14:07:25;40.75;;;16.10;;
42832;SDS011;64089;51.478;5.692;2022-11-20T14:10:03;34.70;;;15.43;;
42832;SDS011;64089;51.478;5.692;2022-11-20T14:12:30;44.08;;;17.70;;
42832;SDS011;64089;51.478;5.692;2022-11-20T14:14:57;45.95;;;17.60;;
42832;SDS011;64089;51.478;5.692;2022-11-20T14:17:29;49.42;;;17.02;;
42832;SDS011;64089;51.478;5.692;2022-11-20T14:19:55;39.15;;;15.23;;
42832;SDS011;64089;51.478;5.692;2022-11-20T14:22:26;46.78;;;18.40;;
42832;SDS011;64089;51.478;5.692;2022-11-20T14:27:41;39.20;;;16.00;;
42832;SDS011;64089;51.478;5.692;2022-11-20T14:30:12;41.97;;;17.05;;
42832;SDS011;64089;51.478;5.692;2022-11-20T14:32:41;37.83;;;15.60;;
42832;SDS011;64089;51.478;5.692;2022-11-20T14:35:09;139.23;;;54.80;;
42832;SDS011;64089;51.478;5.692;2022-11-20T14:37:45;96.00;;;36.40;;
42832;SDS011;64089;51.478;5.692;2022-11-20T14:40:44;176.73;;;63.45;;
42832;SDS011;64089;51.478;5.692;2022-11-20T14:43:16;63.42;;;23.67;;
42832;SDS011;64089;51.478;5.692;2022-11-20T14:45:46;36.78;;;15.57;;
42832;SDS011;64089;51.478;5.692;2022-11-20T14:48:19;38.50;;;15.55;;
42832;SDS011;64089;51.478;5.692;2022-11-20T14:50:50;41.58;;;15.85;;
42832;SDS011;64089;51.478;5.692;2022-11-20T14:53:21;41.75;;;15.27;;
42832;SDS011;64089;51.478;5.692;2022-11-20T14:55:53;38.90;;;16.65;;
42832;SDS011;64089;51.478;5.692;2022-11-20T15:00:57;43.97;;;15.80;;
42832;SDS011;64089;51.478;5.692;2022-11-20T15:03:32;45.25;;;16.63;;
42832;SDS011;64089;51.478;5.692;2022-11-20T15:06:02;45.92;;;18.15;;
42832;SDS011;64089;51.478;5.692;2022-11-20T15:08:27;41.65;;;15.35;;
42832;SDS011;64089;51.478;5.692;2022-11-20T15:10:53;42.15;;;16.10;;
42832;SDS011;64089;51.478;5.692;2022-11-20T15:16:00;43.45;;;15.70;;
42832;SDS011;64089;51.478;5.692;2022-11-20T15:18:28;40.65;;;16.38;;
42832;SDS011;64089;51.478;5.692;2022-11-20T15:20:54;42.78;;;16.23;;
42832;SDS011;64089;51.478;5.692;2022-11-20T15:23:21;46.15;;;15.05;;
42832;SDS011;64089;51.478;5.692;2022-11-20T15:25:47;42.70;;;14.95;;
42832;SDS011;64089;51.478;5.692;2022-11-20T15:28:16;47.08;;;15.63;;
42832;SDS011;64089;51.478;5.692;2022-11-20T15:30:42;45.63;;;16.95;;
42832;SDS011;64089;51.478;5.692;2022-11-20T15:33:09;57.13;;;18.40;;
42832;SDS011;64089;51.478;5.692;2022-11-20T15:35:35;48.65;;;17.35;;
42832;SDS011;64089;51.478;5.692;2022-11-20T15:38:01;41.50;;;16.60;;
42832;SDS011;64089;51.478;5.692;2022-11-20T15:40:26;40.30;;;16.70;;
42832;SDS011;64089;51.478;5.692;2022-11-20T15:42:52;45.72;;;16.85;;
42832;SDS011;64089;51.478;5.692;2022-11-20T15:45:32;46.03;;;16.17;;
42832;SDS011;64089;51.478;5.692;2022-11-20T15:48:18;44.25;;;16.70;;
42832;SDS011;64089;51.478;5.692;2022-11-20T15:50:52;43.65;;;16.02;;
42832;SDS011;64089;51.478;5.692;2022-11-20T15:53:39;39.47;;;15.85;;
42832;SDS011;64089;51.478;5.692;2022-11-20T15:56:08;45.83;;;15.32;;
42832;SDS011;64089;51.478;5.692;2022-11-20T15:58:36;40.92;;;15.98;;
42832;SDS011;64089;51.478;5.692;2022-11-20T16:01:02;50.67;;;17.55;;
42832;SDS011;64089;51.478;5.692;2022-11-20T16:03:27;38.35;;;14.20;;
42832;SDS011;64089;51.478;5.692;2022-11-20T16:05:55;42.58;;;15.00;;
42832;SDS011;64089;51.478;5.692;2022-11-20T16:08:20;31.33;;;13.98;;
42832;SDS011;64089;51.478;5.692;2022-11-20T16:10:46;50.13;;;15.95;;
42832;SDS011;64089;51.478;5.692;2022-11-20T16:13:12;42.15;;;13.90;;
42832;SDS011;64089;51.478;5.692;2022-11-20T16:15:59;50.03;;;14.27;;
42832;SDS011;64089;51.478;5.692;2022-11-20T16:18:30;37.90;;;14.43;;
42832;SDS011;64089;51.478;5.692;2022-11-20T16:20:56;36.80;;;14.75;;
42832;SDS011;64089;51.478;5.692;2022-11-20T16:23:22;30.85;;;13.13;;